createdAt,value
2023-05-07T00:00:50.047Z,18.40
2023-05-07T00:03:16.321Z,18.40
2023-05-07T00:05:42.605Z,18.40
2023-05-07T00:08:09.075Z,18.40
2023-05-07T00:10:35.282Z,18.30
2023-05-07T00:13:01.886Z,18.30
2023-05-07T00:15:28.083Z,18.30
2023-05-07T00:17:54.394Z,18.30
2023-05-07T00:20:20.610Z,18.30
2023-05-07T00:22:47.043Z,18.30
2023-05-07T00:25:13.221Z,18.20
2023-05-07T00:27:39.521Z,18.20
2023-05-07T00:30:06.583Z,18.20
2023-05-07T00:32:32.803Z,18.20
2023-05-07T00:34:59.025Z,18.20
2023-05-07T00:37:25.692Z,18.20
2023-05-07T00:39:51.898Z,18.10
2023-05-07T00:42:18.485Z,18.10
2023-05-07T00:44:44.621Z,18.10
2023-05-07T00:47:11.963Z,18.10
2023-05-07T00:49:45.793Z,18.10
2023-05-07T00:52:17.056Z,18.00
2023-05-07T00:54:43.737Z,18.10
2023-05-07T00:57:11.603Z,18.10
2023-05-07T00:59:38.619Z,18.00
2023-05-07T01:02:05.125Z,18.00
2023-05-07T01:04:31.377Z,18.00
2023-05-07T01:07:00.770Z,18.00
2023-05-07T01:09:28.979Z,18.00
2023-05-07T01:11:58.243Z,18.00
2023-05-07T01:14:25.853Z,18.00
2023-05-07T01:16:53.881Z,18.00
2023-05-07T01:19:23.094Z,18.00
2023-05-07T01:21:51.231Z,18.00
2023-05-07T01:24:19.397Z,18.00
2023-05-07T01:26:45.623Z,17.90
2023-05-07T01:29:14.260Z,17.90
2023-05-07T01:31:43.141Z,17.90
2023-05-07T01:34:14.749Z,17.90
2023-05-07T01:36:44.511Z,17.90
2023-05-07T01:39:11.073Z,17.90
2023-05-07T01:41:38.007Z,17.90
2023-05-07T01:44:06.332Z,17.90
2023-05-07T01:46:34.469Z,17.90
2023-05-07T01:49:00.955Z,17.90
2023-05-07T01:51:27.680Z,17.90
2023-05-07T01:53:53.935Z,17.90
2023-05-07T01:56:21.229Z,17.90
2023-05-07T01:58:48.618Z,17.80
2023-05-07T02:01:15.220Z,17.80
2023-05-07T02:03:42.743Z,17.80
2023-05-07T02:06:16.399Z,17.80
2023-05-07T02:08:43.195Z,17.80
2023-05-07T02:11:10.649Z,17.80
2023-05-07T02:13:36.830Z,17.80
2023-05-07T02:16:04.212Z,17.80
2023-05-07T02:18:30.743Z,17.80
2023-05-07T02:20:56.907Z,17.80
2023-05-07T02:23:23.442Z,17.70
2023-05-07T02:25:49.928Z,17.70
2023-05-07T02:28:16.084Z,17.70
2023-05-07T02:30:48.904Z,17.70
2023-05-07T02:33:15.261Z,17.70
2023-05-07T02:35:41.641Z,17.70
2023-05-07T02:38:08.168Z,17.70
2023-05-07T02:40:38.886Z,17.70
2023-05-07T02:43:05.936Z,17.70
2023-05-07T02:45:33.402Z,17.70
2023-05-07T02:48:01.207Z,17.70
2023-05-07T02:50:27.476Z,17.60
2023-05-07T02:52:54.734Z,17.60
2023-05-07T02:55:21.300Z,17.60
2023-05-07T02:57:47.610Z,17.60
2023-05-07T03:00:19.474Z,17.60
2023-05-07T03:02:53.850Z,17.60
2023-05-07T03:05:20.169Z,17.60
2023-05-07T03:07:47.774Z,17.60
2023-05-07T03:10:14.995Z,17.60
2023-05-07T03:12:41.479Z,17.60
2023-05-07T03:15:10.685Z,17.50
2023-05-07T03:17:36.999Z,17.60
2023-05-07T03:20:04.379Z,17.50
2023-05-07T03:22:32.069Z,17.50
2023-05-07T03:24:58.773Z,17.50
2023-05-07T03:27:25.047Z,17.50
2023-05-07T03:29:52.929Z,17.50
2023-05-07T03:32:19.301Z,17.50
2023-05-07T03:34:45.506Z,17.50
2023-05-07T03:37:12.719Z,17.50
2023-05-07T03:39:39.001Z,17.40
2023-05-07T03:42:05.237Z,17.40
2023-05-07T03:44:32.910Z,17.40
2023-05-07T03:47:00.260Z,17.40
2023-05-07T03:49:26.537Z,17.40
2023-05-07T03:51:52.726Z,17.40
2023-05-07T03:54:19.445Z,17.40
2023-05-07T03:56:47.012Z,17.40
2023-05-07T03:59:14.143Z,17.40
2023-05-07T04:01:41.226Z,17.40
2023-05-07T04:04:08.024Z,17.40
2023-05-07T04:06:36.175Z,17.40
2023-05-07T04:09:02.639Z,17.30
2023-05-07T04:11:29.331Z,17.30
2023-05-07T04:13:55.770Z,17.30
2023-05-07T04:16:23.441Z,17.30
2023-05-07T04:18:49.672Z,17.30
2023-05-07T04:21:18.974Z,17.30
2023-05-07T04:23:48.039Z,17.30
2023-05-07T04:26:16.114Z,17.30
2023-05-07T04:28:44.204Z,17.30
2023-05-07T04:31:10.839Z,17.30
2023-05-07T04:33:37.870Z,17.30
2023-05-07T04:36:05.982Z,17.40
2023-05-07T04:38:37.741Z,17.40
2023-05-07T04:41:08.934Z,17.40
2023-05-07T04:43:39.235Z,17.40
2023-05-07T04:46:05.736Z,17.40
2023-05-07T04:48:31.999Z,17.40
2023-05-07T04:51:00.139Z,17.40
2023-05-07T04:53:26.644Z,17.40
2023-05-07T04:55:58.188Z,17.40
2023-05-07T04:58:27.674Z,17.50
2023-05-07T05:00:54.200Z,17.50
2023-05-07T05:03:20.683Z,17.50
2023-05-07T05:05:49.582Z,17.50
2023-05-07T05:08:15.788Z,17.50
2023-05-07T05:10:43.771Z,17.60
2023-05-07T05:13:12.994Z,17.60
2023-05-07T05:15:39.916Z,17.60
2023-05-07T05:18:06.338Z,17.70
2023-05-07T05:20:32.732Z,17.70
2023-05-07T05:22:58.901Z,17.70
2023-05-07T05:25:25.119Z,17.80
2023-05-07T05:27:51.597Z,17.80
2023-05-07T05:30:18.076Z,17.90
2023-05-07T05:32:46.769Z,17.90
2023-05-07T05:35:13.061Z,18.00
2023-05-07T05:37:40.489Z,18.00
2023-05-07T05:40:08.369Z,18.10
2023-05-07T05:42:34.873Z,18.10
2023-05-07T05:45:01.262Z,18.20
2023-05-07T05:47:29.872Z,18.20
2023-05-07T05:49:56.361Z,18.30
2023-05-07T05:52:24.306Z,18.30
2023-05-07T05:54:50.726Z,18.40
2023-05-07T05:57:18.687Z,18.40
2023-05-07T05:59:46.826Z,18.50
2023-05-07T06:02:13.577Z,18.60
2023-05-07T06:04:41.135Z,18.60
2023-05-07T06:07:07.461Z,18.60
2023-05-07T06:09:34.191Z,18.70
2023-05-07T06:12:01.078Z,18.80
2023-05-07T06:14:29.471Z,18.80
2023-05-07T06:16:56.154Z,18.90
2023-05-07T06:19:24.448Z,18.90
2023-05-07T06:21:52.823Z,19.00
2023-05-07T06:24:19.029Z,19.10
2023-05-07T06:26:45.406Z,19.10
2023-05-07T06:29:13.104Z,19.20
2023-05-07T06:31:41.504Z,19.30
2023-05-07T06:34:08.975Z,19.40
2023-05-07T06:36:37.704Z,19.40
2023-05-07T06:39:17.925Z,19.50
2023-05-07T06:41:45.292Z,19.60
2023-05-07T06:44:21.679Z,19.70
2023-05-07T06:46:58.533Z,19.80
2023-05-07T06:49:24.797Z,19.80
2023-05-07T06:51:51.242Z,19.90
2023-05-07T06:54:18.875Z,20.00
2023-05-07T06:56:45.712Z,20.10
2023-05-07T06:59:12.178Z,20.10
2023-05-07T07:01:40.749Z,20.20
2023-05-07T07:04:08.665Z,20.30
2023-05-07T07:06:35.987Z,20.40
2023-05-07T07:09:06.673Z,20.50
2023-05-07T07:11:32.876Z,20.50
2023-05-07T07:14:00.185Z,20.60
2023-05-07T07:16:26.564Z,20.70
2023-05-07T07:18:52.859Z,20.70
2023-05-07T07:21:20.335Z,20.80
2023-05-07T07:23:47.189Z,20.80
2023-05-07T07:26:13.617Z,20.90
2023-05-07T07:28:45.681Z,20.90
2023-05-07T07:31:14.334Z,21.00
2023-05-07T07:33:40.947Z,21.10
2023-05-07T07:36:07.968Z,21.20
2023-05-07T07:38:34.830Z,21.30
2023-05-07T07:41:02.117Z,21.40
2023-05-07T07:43:29.372Z,21.50
2023-05-07T07:45:55.870Z,21.50
2023-05-07T07:48:22.514Z,21.60
2023-05-07T07:50:51.455Z,21.70
2023-05-07T07:53:20.354Z,21.80
2023-05-07T07:55:46.827Z,21.90
2023-05-07T07:58:16.351Z,21.90
2023-05-07T08:00:42.885Z,22.00
2023-05-07T08:03:12.958Z,22.10
2023-05-07T08:05:43.954Z,22.20
2023-05-07T08:08:10.517Z,22.20
2023-05-07T08:10:39.621Z,22.30
2023-05-07T08:13:11.738Z,22.40
2023-05-07T08:15:40.085Z,22.40
2023-05-07T08:18:06.776Z,22.40
2023-05-07T08:20:36.241Z,22.50
2023-05-07T08:23:02.628Z,22.60
2023-05-07T08:25:29.029Z,22.70
2023-05-07T08:27:58.352Z,22.80
2023-05-07T08:30:24.595Z,22.90
2023-05-07T08:32:51.457Z,22.90
2023-05-07T08:35:17.975Z,23.00
2023-05-07T08:37:44.478Z,23.10
2023-05-07T08:40:13.684Z,23.20
2023-05-07T08:42:42.972Z,23.30
2023-05-07T08:45:11.540Z,23.40
2023-05-07T08:47:52.023Z,23.50
2023-05-07T08:50:21.489Z,23.70
2023-05-07T08:52:49.075Z,23.80
2023-05-07T08:55:17.876Z,23.80
2023-05-07T08:57:44.336Z,23.90
2023-05-07T09:00:12.793Z,24.00
2023-05-07T09:02:40.227Z,24.10
2023-05-07T09:05:08.866Z,24.20
2023-05-07T09:07:35.924Z,24.30
2023-05-07T09:10:05.467Z,24.40
2023-05-07T09:12:33.060Z,24.50
2023-05-07T09:15:00.216Z,24.60
2023-05-07T09:17:28.001Z,24.70
2023-05-07T09:19:54.393Z,24.70
2023-05-07T09:22:21.475Z,24.80
2023-05-07T09:24:55.926Z,24.80
2023-05-07T09:27:26.548Z,24.80
2023-05-07T09:29:53.980Z,24.90
2023-05-07T09:32:20.362Z,24.90
2023-05-07T09:34:47.458Z,25.00
2023-05-07T09:37:16.207Z,25.00
2023-05-07T09:39:47.522Z,25.10
2023-05-07T09:42:16.338Z,25.10
2023-05-07T09:44:48.015Z,25.10
2023-05-07T09:47:23.395Z,25.20
2023-05-07T09:49:58.208Z,25.30
2023-05-07T09:52:30.396Z,25.40
2023-05-07T09:55:00.213Z,25.50
2023-05-07T09:57:29.338Z,25.60
2023-05-07T10:00:04.514Z,25.60
2023-05-07T10:02:37.430Z,25.70
2023-05-07T10:05:04.913Z,25.70
2023-05-07T10:07:33.895Z,25.80
2023-05-07T10:10:07.192Z,25.80
2023-05-07T10:12:40.504Z,25.90
2023-05-07T10:15:15.872Z,25.90
2023-05-07T10:17:47.747Z,26.00
2023-05-07T10:20:14.236Z,26.00
2023-05-07T10:22:46.114Z,26.10
2023-05-07T10:25:23.230Z,26.10
2023-05-07T10:27:51.941Z,26.30
2023-05-07T10:30:39.947Z,26.40
2023-05-07T10:33:13.981Z,26.50
2023-05-07T10:35:48.064Z,26.60
2023-05-07T10:38:15.756Z,26.60
2023-05-07T10:43:13.690Z,26.80
2023-05-07T10:46:10.120Z,26.80
2023-05-07T10:49:03.054Z,26.80
2023-05-07T10:51:37.162Z,26.90
2023-05-07T10:54:20.451Z,26.90
2023-05-07T10:56:55.401Z,27.00
2023-05-07T10:59:35.493Z,26.90
2023-05-07T11:02:11.652Z,27.00
2023-05-07T11:05:24.870Z,26.90
2023-05-07T11:08:10.250Z,26.90
2023-05-07T11:10:58.542Z,26.80
2023-05-07T11:13:46.361Z,26.70
2023-05-07T11:16:24.437Z,26.80
2023-05-07T11:18:58.167Z,26.70
2023-05-07T11:21:40.832Z,26.70
2023-05-07T11:24:42.977Z,26.60
2023-05-07T11:27:11.447Z,26.60
2023-05-07T11:29:37.998Z,26.60
2023-05-07T11:32:08.864Z,26.50
2023-05-07T11:34:41.452Z,26.50
2023-05-07T11:37:09.532Z,26.50
2023-05-07T11:39:45.142Z,26.50
2023-05-07T11:42:37.553Z,26.30
2023-05-07T11:45:06.589Z,26.40
2023-05-07T11:47:34.340Z,26.30
2023-05-07T11:50:08.915Z,26.30
2023-05-07T11:52:36.462Z,26.30
2023-05-07T11:55:06.770Z,26.30
2023-05-07T11:57:34.801Z,26.30
2023-05-07T12:00:04.208Z,26.30
2023-05-07T12:02:39.032Z,26.30
2023-05-07T12:05:05.688Z,26.30
2023-05-07T12:07:34.922Z,26.20
2023-05-07T12:10:07.438Z,26.20
2023-05-07T12:12:46.488Z,26.20
2023-05-07T12:15:17.472Z,26.20
2023-05-07T12:17:44.632Z,26.20
2023-05-07T12:20:11.408Z,26.20
2023-05-07T12:22:37.802Z,26.20
2023-05-07T12:25:04.562Z,26.20
2023-05-07T12:27:30.981Z,26.20
2023-05-07T12:29:59.466Z,26.20
2023-05-07T12:32:25.694Z,26.20
2023-05-07T12:34:52.401Z,26.20
2023-05-07T12:37:26.066Z,26.20
2023-05-07T12:40:09.530Z,26.20
2023-05-07T12:42:42.778Z,26.20
2023-05-07T12:45:10.346Z,26.20
2023-05-07T12:47:37.892Z,26.20
2023-05-07T12:50:06.986Z,26.10
2023-05-07T12:52:34.844Z,26.10
2023-05-07T12:55:14.294Z,26.00
2023-05-07T12:57:44.082Z,25.90
2023-05-07T13:00:11.124Z,25.90
2023-05-07T13:02:44.720Z,25.70
2023-05-07T13:05:11.171Z,25.70
2023-05-07T13:07:38.313Z,25.60
2023-05-07T13:10:05.454Z,25.50
2023-05-07T13:12:31.641Z,25.40
2023-05-07T13:14:57.846Z,25.30
2023-05-07T13:17:24.213Z,25.20
2023-05-07T13:19:50.495Z,25.00
2023-05-07T13:22:16.898Z,24.90
2023-05-07T13:24:43.911Z,24.80
2023-05-07T13:27:10.237Z,24.70
2023-05-07T13:29:36.394Z,24.60
2023-05-07T13:32:02.728Z,24.50
2023-05-07T13:34:29.128Z,24.40
2023-05-07T13:36:55.764Z,24.30
2023-05-07T13:39:22.198Z,24.20
2023-05-07T13:41:48.424Z,24.10
2023-05-07T13:44:14.631Z,24.00
2023-05-07T13:46:41.152Z,23.80
2023-05-07T13:49:07.397Z,23.70
2023-05-07T13:51:33.637Z,23.60
2023-05-07T13:53:59.902Z,23.50
2023-05-07T13:56:26.125Z,23.40
2023-05-07T13:59:00.170Z,23.30
2023-05-07T14:01:27.886Z,23.20
2023-05-07T14:03:54.273Z,23.10
2023-05-07T14:06:20.661Z,23.10
2023-05-07T14:08:47.489Z,23.00
2023-05-07T14:11:13.657Z,22.90
2023-05-07T14:13:39.947Z,22.80
2023-05-07T14:16:06.318Z,22.80
2023-05-07T14:18:33.983Z,22.70
2023-05-07T14:21:00.215Z,22.70
2023-05-07T14:23:26.797Z,22.60
2023-05-07T14:25:53.689Z,22.60
2023-05-07T14:28:20.081Z,22.50
2023-05-07T14:30:47.123Z,22.50
2023-05-07T14:33:13.348Z,22.50
2023-05-07T14:35:39.546Z,22.40
2023-05-07T14:38:05.693Z,22.40
2023-05-07T14:40:31.933Z,22.40
2023-05-07T14:42:58.050Z,22.40
2023-05-07T14:45:24.259Z,22.30
2023-05-07T14:47:50.547Z,22.30
2023-05-07T14:50:16.800Z,22.30
2023-05-07T14:52:43.404Z,22.30
2023-05-07T14:55:10.036Z,22.30
2023-05-07T14:57:36.398Z,22.30
2023-05-07T15:00:04.990Z,22.30
2023-05-07T15:02:31.473Z,22.30
2023-05-07T15:04:58.982Z,22.30
2023-05-07T15:07:25.284Z,22.30
2023-05-07T15:09:51.962Z,22.30
2023-05-07T15:12:18.112Z,22.30
2023-05-07T15:14:44.347Z,22.30
2023-05-07T15:17:11.034Z,22.30
2023-05-07T15:19:37.185Z,22.30
2023-05-07T15:22:03.458Z,22.30
2023-05-07T15:24:30.898Z,22.40
2023-05-07T15:26:58.403Z,22.40
2023-05-07T15:29:25.275Z,22.30
2023-05-07T15:31:52.429Z,22.30
2023-05-07T15:34:18.847Z,22.30
2023-05-07T15:36:45.024Z,22.30
2023-05-07T15:39:11.296Z,22.30
2023-05-07T15:41:37.606Z,22.30
2023-05-07T15:44:06.802Z,22.30
2023-05-07T15:46:33.037Z,22.30
2023-05-07T15:49:04.662Z,22.30
2023-05-07T15:51:31.275Z,22.30
2023-05-07T15:53:57.471Z,22.30
2023-05-07T15:56:24.573Z,22.20
2023-05-07T15:58:50.971Z,22.20
2023-05-07T16:01:17.196Z,22.20
2023-05-07T16:03:43.997Z,22.20
2023-05-07T16:06:11.820Z,22.20
2023-05-07T16:08:39.637Z,22.20
2023-05-07T16:11:06.035Z,22.10
2023-05-07T16:13:32.460Z,22.10
2023-05-07T16:15:59.297Z,22.10
2023-05-07T16:18:25.803Z,22.10
2023-05-07T16:20:52.128Z,22.10
2023-05-07T16:23:18.832Z,22.10
2023-05-07T16:25:45.309Z,22.10
2023-05-07T16:28:11.725Z,22.00
2023-05-07T16:30:38.170Z,22.00
2023-05-07T16:33:04.459Z,22.00
2023-05-07T16:35:30.604Z,22.00
2023-05-07T16:37:56.789Z,22.00
2023-05-07T16:40:23.076Z,22.00
2023-05-07T16:42:49.357Z,22.00
2023-05-07T16:45:16.140Z,21.90
2023-05-07T16:47:42.674Z,21.90
2023-05-07T16:50:09.326Z,21.90
2023-05-07T16:52:35.979Z,21.90
2023-05-07T16:55:02.231Z,21.90
2023-05-07T16:57:31.851Z,21.80
2023-05-07T16:59:59.128Z,21.80
2023-05-07T17:02:25.479Z,21.80
2023-05-07T17:04:51.765Z,21.80
2023-05-07T17:07:17.967Z,21.80
2023-05-07T17:09:44.130Z,21.80
2023-05-07T17:12:10.368Z,21.70
2023-05-07T17:14:36.581Z,21.70
2023-05-07T17:17:02.954Z,21.70
2023-05-07T17:19:29.383Z,21.60
2023-05-07T17:21:55.796Z,21.60
2023-05-07T17:24:21.986Z,21.60
2023-05-07T17:26:48.198Z,21.60
2023-05-07T17:29:15.022Z,21.60
2023-05-07T17:31:41.522Z,21.60
2023-05-07T17:34:07.719Z,21.50
2023-05-07T17:36:33.879Z,21.50
2023-05-07T17:39:00.150Z,21.50
2023-05-07T17:41:26.300Z,21.50
2023-05-07T17:43:52.732Z,21.50
2023-05-07T17:46:18.888Z,21.50
2023-05-07T17:48:45.067Z,21.40
2023-05-07T17:51:11.274Z,21.40
2023-05-07T17:53:37.489Z,21.40
2023-05-07T17:56:03.702Z,21.40
2023-05-07T17:58:30.955Z,21.40
2023-05-07T18:00:57.160Z,21.30
2023-05-07T18:03:24.569Z,21.30
2023-05-07T18:05:51.421Z,21.30
2023-05-07T18:08:17.734Z,21.30
2023-05-07T18:10:43.950Z,21.30
2023-05-07T18:13:10.259Z,21.20
2023-05-07T18:15:36.461Z,21.20
2023-05-07T18:18:02.770Z,21.20
2023-05-07T18:20:29.049Z,21.20
2023-05-07T18:22:55.421Z,21.20
2023-05-07T18:25:21.835Z,21.10
2023-05-07T18:27:48.019Z,21.10
2023-05-07T18:30:14.646Z,21.10
2023-05-07T18:32:41.130Z,21.10
2023-05-07T18:35:08.137Z,21.00
2023-05-07T18:37:34.301Z,21.00
2023-05-07T18:40:03.379Z,21.00
2023-05-07T18:42:30.695Z,21.00
2023-05-07T18:44:57.817Z,20.90
2023-05-07T18:47:24.034Z,20.90
2023-05-07T18:49:50.335Z,20.90
2023-05-07T18:52:17.642Z,20.90
2023-05-07T18:54:44.968Z,20.90
2023-05-07T18:57:11.188Z,20.90
2023-05-07T18:59:37.461Z,20.80
2023-05-07T19:02:03.722Z,20.80
2023-05-07T19:04:30.210Z,20.80
2023-05-07T19:06:56.614Z,20.70
2023-05-07T19:09:22.790Z,20.70
2023-05-07T19:11:49.073Z,20.70
2023-05-07T19:14:15.274Z,20.70
2023-05-07T19:16:41.591Z,20.70
2023-05-07T19:19:08.663Z,20.60
2023-05-07T19:21:34.932Z,20.60
2023-05-07T19:24:01.376Z,20.60
2023-05-07T19:26:27.624Z,20.50
2023-05-07T19:29:01.764Z,20.60
2023-05-07T19:31:38.643Z,20.50
2023-05-07T19:34:04.917Z,20.50
2023-05-07T19:36:33.799Z,20.50
2023-05-07T19:39:00.006Z,20.50
2023-05-07T19:41:26.328Z,20.40
2023-05-07T19:43:52.499Z,20.40
2023-05-07T19:46:18.888Z,20.40
2023-05-07T19:48:45.315Z,20.40
2023-05-07T19:51:11.578Z,20.40
2023-05-07T19:53:37.806Z,20.30
2023-05-07T19:56:09.887Z,20.30
2023-05-07T19:58:37.120Z,20.30
2023-05-07T20:01:05.406Z,20.30
2023-05-07T20:03:33.599Z,20.30
2023-05-07T20:06:00.439Z,20.30
2023-05-07T20:08:27.792Z,20.20
2023-05-07T20:10:58.407Z,20.20
2023-05-07T20:13:26.121Z,20.20
2023-05-07T20:16:00.179Z,20.20
2023-05-07T20:18:28.201Z,20.10
2023-05-07T20:20:55.208Z,20.10
2023-05-07T20:23:21.616Z,20.10
2023-05-07T20:25:48.350Z,20.10
2023-05-07T20:28:14.600Z,20.10
2023-05-07T20:30:40.936Z,20.10
2023-05-07T20:33:07.269Z,20.10
2023-05-07T20:35:33.906Z,20.00
2023-05-07T20:38:00.378Z,20.00
2023-05-07T20:40:27.164Z,20.00
2023-05-07T20:42:53.429Z,20.00
2023-05-07T20:45:19.981Z,20.00
2023-05-07T20:47:46.363Z,20.00
2023-05-07T20:50:12.839Z,20.00
2023-05-07T20:52:40.217Z,19.90
2023-05-07T20:55:07.254Z,19.90
2023-05-07T20:57:33.432Z,19.90
2023-05-07T20:59:59.633Z,19.90
2023-05-07T21:02:25.911Z,19.90
2023-05-07T21:04:52.171Z,19.90
2023-05-07T21:07:18.515Z,19.90
2023-05-07T21:09:44.703Z,19.80
2023-05-07T21:12:10.880Z,19.80
2023-05-07T21:14:37.959Z,19.80
2023-05-07T21:17:06.259Z,19.80
2023-05-07T21:19:33.300Z,19.80
2023-05-07T21:21:59.516Z,19.80
2023-05-07T21:24:26.006Z,19.80
2023-05-07T21:26:55.689Z,19.80
2023-05-07T21:29:22.640Z,19.80
2023-05-07T21:31:49.360Z,19.70
2023-05-07T21:34:15.690Z,19.70
2023-05-07T21:36:41.881Z,19.70
2023-05-07T21:39:08.131Z,19.70
2023-05-07T21:41:35.675Z,19.70
2023-05-07T21:44:03.693Z,19.70
2023-05-07T21:46:30.037Z,19.70
2023-05-07T21:48:56.537Z,19.60
2023-05-07T21:51:22.911Z,19.60
2023-05-07T21:53:49.062Z,19.60
2023-05-07T21:56:15.329Z,19.60
2023-05-07T21:58:41.487Z,19.60
2023-05-07T22:01:11.568Z,19.50
2023-05-07T22:03:38.864Z,19.50
2023-05-07T22:06:05.794Z,19.50
2023-05-07T22:08:31.985Z,19.50
2023-05-07T22:10:58.222Z,19.50
2023-05-07T22:13:25.092Z,19.50
2023-05-07T22:15:57.388Z,19.40
2023-05-07T22:18:25.174Z,19.40
2023-05-07T22:20:51.778Z,19.40
2023-05-07T22:23:18.369Z,19.40
2023-05-07T22:25:44.595Z,19.40
2023-05-07T22:28:10.788Z,19.30
2023-05-07T22:30:37.416Z,19.30
2023-05-07T22:33:03.718Z,19.30
2023-05-07T22:35:29.939Z,19.30
2023-05-07T22:37:56.175Z,19.30
2023-05-07T22:40:22.380Z,19.30
2023-05-07T22:42:48.654Z,19.30
2023-05-07T22:45:15.305Z,19.20
2023-05-07T22:47:41.549Z,19.20
2023-05-07T22:50:08.373Z,19.20
2023-05-07T22:52:34.831Z,19.20
2023-05-07T22:55:01.020Z,19.20
2023-05-07T22:57:27.231Z,19.20
2023-05-07T22:59:56.546Z,19.20
2023-05-07T23:02:23.123Z,19.10
2023-05-07T23:04:49.491Z,19.10
2023-05-07T23:07:15.717Z,19.10
2023-05-07T23:09:42.361Z,19.10
2023-05-07T23:12:08.917Z,19.10
2023-05-07T23:14:35.921Z,19.10
2023-05-07T23:17:02.126Z,19.10
2023-05-07T23:19:28.350Z,19.10
2023-05-07T23:21:54.532Z,19.10
2023-05-07T23:24:20.722Z,19.10
2023-05-07T23:26:46.920Z,19.10
2023-05-07T23:29:13.123Z,19.00
2023-05-07T23:31:39.515Z,19.00
2023-05-07T23:34:05.797Z,19.00
2023-05-07T23:36:32.157Z,19.00
2023-05-07T23:38:58.393Z,19.00
2023-05-07T23:41:25.001Z,19.00
2023-05-07T23:43:51.186Z,19.00
2023-05-07T23:46:17.422Z,19.00
2023-05-07T23:48:43.650Z,19.00
2023-05-07T23:51:09.845Z,19.00
2023-05-07T23:53:36.326Z,18.90
2023-05-07T23:56:02.994Z,18.90
2023-05-07T23:58:29.154Z,18.90
